HVN751 VYYY-VVTS
Flight info
| Callsign | HVN751 |
|---|---|
| Flight time | 1h 55m |
| Altitude | 41000 |
| Route | BOSPO1A ARATO L507 BKK N506 ELMOP R468 SAPEN SAPEN5N |
| Aircraft | A359/H-SDE2E3GHIJ3J4J5LM1ORWXY/LB1D1 |
Departure
| Time | 2026-05-06 16:32 |
|---|---|
| Airport | Yangon International Airport (VYYY) |
Arrival
| Time | 2026-05-06 18:28 |
|---|---|
| Airport | Tan Son Nhat International Airport (VVTS) |
| Time | Latitude | Longitude | Altitude | Speed | Heading |
|---|---|---|---|---|---|
| 2026-05-06 15:58 | 16.90184 | 96.13353 | 101 ft | 0 kts | 122° |
| 2026-05-06 16:21 | 16.90190 | 96.13343 | 102 ft | 3 kts | 122° |
| 2026-05-06 16:21 | 16.90201 | 96.13325 | 101 ft | 3 kts | 122° |
| 2026-05-06 16:21 | 16.90212 | 96.13307 | 99 ft | 3 kts | 122° |
| 2026-05-06 16:21 | 16.90223 | 96.13289 | 100 ft | 3 kts | 123° |
| 2026-05-06 16:22 | 16.90231 | 96.13277 | 100 ft | 3 kts | 123° |
| 2026-05-06 16:22 | 16.90244 | 96.13255 | 99 ft | 3 kts | 99° |
| 2026-05-06 16:22 | 16.90245 | 96.13243 | 101 ft | 3 kts | 65° |
| 2026-05-06 16:22 | 16.90233 | 96.13228 | 99 ft | 3 kts | 34° |
| 2026-05-06 16:23 | 16.90217 | 96.13217 | 100 ft | 1 kts | 33° |
| 2026-05-06 16:23 | 16.90214 | 96.13215 | 100 ft | 0 kts | 33° |
| 2026-05-06 16:25 | 16.90216 | 96.13216 | 104 ft | 2 kts | 33° |
| 2026-05-06 16:25 | 16.90254 | 96.13242 | 104 ft | 9 kts | 32° |
| 2026-05-06 16:26 | 16.90316 | 96.13283 | 104 ft | 12 kts | 32° |
| 2026-05-06 16:26 | 16.90398 | 96.13337 | 104 ft | 15 kts | 32° |
| 2026-05-06 16:26 | 16.90490 | 96.13400 | 104 ft | 17 kts | 33° |
| 2026-05-06 16:26 | 16.90592 | 96.13470 | 104 ft | 18 kts | 34° |
| 2026-05-06 16:27 | 16.90704 | 96.13550 | 102 ft | 21 kts | 34° |
| 2026-05-06 16:27 | 16.90829 | 96.13633 | 104 ft | 22 kts | 29° |
| 2026-05-06 16:27 | 16.90948 | 96.13710 | 105 ft | 19 kts | 32° |
| 2026-05-06 16:27 | 16.91063 | 96.13790 | 104 ft | 21 kts | 34° |
| 2026-05-06 16:28 | 16.91192 | 96.13875 | 102 ft | 23 kts | 32° |
| 2026-05-06 16:28 | 16.91330 | 96.13970 | 103 ft | 24 kts | 33° |
| 2026-05-06 16:28 | 16.91468 | 96.14063 | 103 ft | 22 kts | 33° |
| 2026-05-06 16:28 | 16.91604 | 96.14155 | 103 ft | 24 kts | 33° |
| 2026-05-06 16:29 | 16.91750 | 96.14253 | 105 ft | 26 kts | 33° |
| 2026-05-06 16:29 | 16.91907 | 96.14359 | 104 ft | 28 kts | 33° |
| 2026-05-06 16:29 | 16.92073 | 96.14471 | 104 ft | 29 kts | 33° |
| 2026-05-06 16:29 | 16.92170 | 96.14537 | 103 ft | 14 kts | 33° |
| 2026-05-06 16:30 | 16.92269 | 96.14552 | 102 ft | 14 kts | 333° |
| 2026-05-06 16:30 | 16.92306 | 96.14504 | 102 ft | 13 kts | 303° |
| 2026-05-06 16:30 | 16.92337 | 96.14414 | 101 ft | 8 kts | 232° |
| 2026-05-06 16:30 | 16.92315 | 96.14399 | 100 ft | 0 kts | 212° |
| 2026-05-06 16:31 | 16.92313 | 96.14398 | 100 ft | 4 kts | 212° |
| 2026-05-06 16:31 | 16.92123 | 96.14272 | 103 ft | 69 kts | 213° |
| 2026-05-06 16:32 | 16.91523 | 96.13865 | 100 ft | 135 kts | 212° |
| 2026-05-06 16:32 | 16.90581 | 96.13233 | 258 ft | 177 kts | 212° |
| 2026-05-06 16:32 | 16.89512 | 96.12504 | 811 ft | 194 kts | 213° |
| 2026-05-06 16:32 | 16.88417 | 96.11509 | 1300 ft | 219 kts | 226° |
| 2026-05-06 16:33 | 16.87311 | 96.10312 | 1852 ft | 234 kts | 226° |
| 2026-05-06 16:33 | 16.86179 | 96.09103 | 2718 ft | 233 kts | 225° |
| 2026-05-06 16:33 | 16.85015 | 96.07896 | 3496 ft | 238 kts | 225° |
| 2026-05-06 16:34 | 16.82589 | 96.05435 | 4946 ft | 251 kts | 223° |
| 2026-05-06 16:34 | 16.81318 | 96.04159 | 5648 ft | 256 kts | 222° |
| 2026-05-06 16:34 | 16.80026 | 96.02868 | 6396 ft | 259 kts | 222° |
| 2026-05-06 16:34 | 16.78780 | 96.01532 | 7119 ft | 262 kts | 230° |
| 2026-05-06 16:35 | 16.77981 | 95.99824 | 7896 ft | 266 kts | 257° |
| 2026-05-06 16:35 | 16.78068 | 95.97904 | 8719 ft | 268 kts | 288° |
| 2026-05-06 16:35 | 16.79048 | 95.96233 | 9380 ft | 281 kts | 315° |
| 2026-05-06 16:35 | 16.80801 | 95.95269 | 9929 ft | 293 kts | 349° |
| 2026-05-06 16:36 | 16.82884 | 95.95186 | 10367 ft | 311 kts | 3° |
| 2026-05-06 16:36 | 16.85112 | 95.95363 | 10667 ft | 331 kts | 4° |
| 2026-05-06 16:36 | 16.87472 | 95.95558 | 11009 ft | 348 kts | 4° |
| 2026-05-06 16:36 | 16.89912 | 95.95872 | 11532 ft | 357 kts | 13° |
| 2026-05-06 16:37 | 16.92209 | 95.96876 | 12164 ft | 362 kts | 33° |
| 2026-05-06 16:37 | 16.94198 | 95.98513 | 12817 ft | 366 kts | 41° |
| 2026-05-06 16:37 | 16.96092 | 96.00264 | 13505 ft | 370 kts | 41° |
| 2026-05-06 16:37 | 16.98026 | 96.02061 | 14097 ft | 375 kts | 41° |
| 2026-05-06 16:38 | 16.99996 | 96.03880 | 14652 ft | 379 kts | 41° |
| 2026-05-06 16:38 | 17.01982 | 96.05704 | 15250 ft | 382 kts | 41° |
| 2026-05-06 16:38 | 17.03987 | 96.07543 | 15800 ft | 385 kts | 41° |
| 2026-05-06 16:38 | 17.06014 | 96.09400 | 16355 ft | 389 kts | 40° |
| 2026-05-06 16:39 | 17.08061 | 96.11274 | 16946 ft | 392 kts | 41° |
| 2026-05-06 16:39 | 17.10124 | 96.13162 | 17438 ft | 396 kts | 41° |
| 2026-05-06 16:39 | 17.12170 | 96.15124 | 17981 ft | 400 kts | 45° |
| 2026-05-06 16:39 | 17.13930 | 96.17378 | 18480 ft | 403 kts | 56° |
| 2026-05-06 16:40 | 17.15232 | 96.19983 | 18890 ft | 407 kts | 69° |
| 2026-05-06 16:40 | 17.15980 | 96.22841 | 19381 ft | 409 kts | 81° |
| 2026-05-06 16:40 | 17.16146 | 96.25815 | 19848 ft | 411 kts | 93° |
| 2026-05-06 16:40 | 17.15704 | 96.28777 | 20299 ft | 414 kts | 106° |
| 2026-05-06 16:41 | 17.14671 | 96.31579 | 20799 ft | 415 kts | 118° |
| 2026-05-06 16:41 | 17.13099 | 96.34115 | 21260 ft | 417 kts | 129° |
| 2026-05-06 16:41 | 17.11381 | 96.36568 | 21710 ft | 421 kts | 124° |
| 2026-05-06 16:41 | 17.10026 | 96.39296 | 22202 ft | 424 kts | 113° |
| 2026-05-06 16:42 | 17.08996 | 96.42150 | 22690 ft | 427 kts | 110° |
| 2026-05-06 16:42 | 17.08000 | 96.45088 | 23127 ft | 431 kts | 110° |
| 2026-05-06 16:42 | 17.06998 | 96.48058 | 23556 ft | 434 kts | 110° |
| 2026-05-06 16:42 | 17.05992 | 96.51040 | 23944 ft | 436 kts | 110° |
| 2026-05-06 16:43 | 17.04977 | 96.54047 | 24271 ft | 441 kts | 110° |
| 2026-05-06 16:43 | 17.03951 | 96.57080 | 24647 ft | 444 kts | 110° |
| 2026-05-06 16:43 | 17.02918 | 96.60129 | 25065 ft | 446 kts | 110° |
| 2026-05-06 16:43 | 17.01879 | 96.63198 | 25490 ft | 450 kts | 110° |
| 2026-05-06 16:44 | 17.00830 | 96.66290 | 25913 ft | 454 kts | 110° |
| 2026-05-06 16:44 | 16.99769 | 96.69418 | 26355 ft | 457 kts | 110° |
| 2026-05-06 16:44 | 16.98699 | 96.72570 | 26798 ft | 461 kts | 110° |
| 2026-05-06 16:44 | 16.97623 | 96.75738 | 27232 ft | 465 kts | 110° |
| 2026-05-06 16:45 | 16.96538 | 96.78929 | 27658 ft | 469 kts | 110° |
| 2026-05-06 16:45 | 16.95454 | 96.82116 | 28084 ft | 472 kts | 110° |
| 2026-05-06 16:45 | 16.94335 | 96.85403 | 28528 ft | 476 kts | 110° |
| 2026-05-06 16:45 | 16.93237 | 96.88629 | 28950 ft | 479 kts | 110° |
| 2026-05-06 16:46 | 16.92118 | 96.91914 | 29435 ft | 481 kts | 110° |
| 2026-05-06 16:46 | 16.90993 | 96.95215 | 29856 ft | 484 kts | 110° |
| 2026-05-06 16:46 | 16.89858 | 96.98544 | 30167 ft | 488 kts | 110° |
| 2026-05-06 16:46 | 16.88718 | 97.01884 | 30528 ft | 491 kts | 110° |
| 2026-05-06 16:47 | 16.87567 | 97.05253 | 30873 ft | 494 kts | 110° |
| 2026-05-06 16:47 | 16.86410 | 97.08641 | 31209 ft | 497 kts | 110° |
| 2026-05-06 16:47 | 16.85243 | 97.12053 | 31541 ft | 500 kts | 110° |
| 2026-05-06 16:47 | 16.83998 | 97.15458 | 31848 ft | 503 kts | 114° |
| 2026-05-06 16:48 | 16.82330 | 97.18669 | 32156 ft | 505 kts | 124° |
| 2026-05-06 16:48 | 16.80256 | 97.21633 | 32465 ft | 507 kts | 128° |
| 2026-05-06 16:48 | 16.78082 | 97.24543 | 32762 ft | 509 kts | 129° |
| 2026-05-06 16:48 | 16.75921 | 97.27419 | 33047 ft | 512 kts | 129° |
| 2026-05-06 16:49 | 16.73722 | 97.30350 | 33333 ft | 514 kts | 129° |
| 2026-05-06 16:49 | 16.71516 | 97.33297 | 33627 ft | 516 kts | 129° |
| 2026-05-06 16:49 | 16.69297 | 97.36263 | 33878 ft | 519 kts | 129° |
| 2026-05-06 16:49 | 16.67076 | 97.39233 | 34119 ft | 521 kts | 129° |
| 2026-05-06 16:50 | 16.64850 | 97.42210 | 34470 ft | 519 kts | 129° |
| 2026-05-06 16:50 | 16.62634 | 97.45172 | 34898 ft | 516 kts | 129° |
| 2026-05-06 16:50 | 16.60426 | 97.48123 | 35322 ft | 513 kts | 129° |
| 2026-05-06 16:50 | 16.58262 | 97.51015 | 35682 ft | 512 kts | 129° |
| 2026-05-06 16:51 | 16.56077 | 97.53932 | 36032 ft | 510 kts | 129° |
| 2026-05-06 16:51 | 16.53897 | 97.56843 | 36382 ft | 508 kts | 129° |
| 2026-05-06 16:51 | 16.51723 | 97.59743 | 36747 ft | 507 kts | 129° |
| 2026-05-06 16:51 | 16.49557 | 97.62634 | 37056 ft | 506 kts | 129° |
| 2026-05-06 16:52 | 16.47390 | 97.65523 | 37398 ft | 505 kts | 129° |
| 2026-05-06 16:52 | 16.45230 | 97.68402 | 37765 ft | 503 kts | 129° |
| 2026-05-06 16:52 | 16.43084 | 97.71261 | 38117 ft | 501 kts | 129° |
| 2026-05-06 16:52 | 16.40941 | 97.74115 | 38477 ft | 499 kts | 129° |
| 2026-05-06 16:53 | 16.38805 | 97.76959 | 38751 ft | 497 kts | 129° |
| 2026-05-06 16:53 | 16.36561 | 97.79691 | 38978 ft | 495 kts | 135° |
| 2026-05-06 16:53 | 16.34073 | 97.82158 | 39220 ft | 493 kts | 139° |
| 2026-05-06 16:53 | 16.31510 | 97.84529 | 39456 ft | 492 kts | 140° |
| 2026-05-06 16:54 | 16.28917 | 97.86853 | 39681 ft | 491 kts | 141° |
| 2026-05-06 16:54 | 16.26320 | 97.89153 | 39901 ft | 490 kts | 141° |
| 2026-05-06 16:54 | 16.23730 | 97.91447 | 40133 ft | 489 kts | 141° |
| 2026-05-06 16:54 | 16.21150 | 97.93741 | 40346 ft | 488 kts | 141° |
| 2026-05-06 16:55 | 16.18575 | 97.96040 | 40560 ft | 486 kts | 140° |
| 2026-05-06 16:55 | 16.16016 | 97.98333 | 40771 ft | 485 kts | 140° |
| 2026-05-06 16:55 | 16.13455 | 98.00633 | 40861 ft | 487 kts | 140° |
| 2026-05-06 16:56 | 16.08355 | 98.05215 | 40879 ft | 487 kts | 140° |
| 2026-05-06 16:56 | 16.03212 | 98.09834 | 40878 ft | 487 kts | 140° |
| 2026-05-06 16:57 | 15.98079 | 98.14439 | 40878 ft | 487 kts | 140° |
| 2026-05-06 16:57 | 15.92946 | 98.19040 | 40879 ft | 487 kts | 140° |
| 2026-05-06 16:58 | 15.87827 | 98.23625 | 40889 ft | 487 kts | 140° |
| 2026-05-06 16:58 | 15.82693 | 98.28219 | 40889 ft | 487 kts | 140° |
| 2026-05-06 16:59 | 15.77558 | 98.32812 | 40889 ft | 488 kts | 140° |
| 2026-05-06 16:59 | 15.72403 | 98.37420 | 40906 ft | 488 kts | 140° |
| 2026-05-06 17:00 | 15.67287 | 98.41990 | 40906 ft | 488 kts | 140° |
| 2026-05-06 17:00 | 15.62236 | 98.46498 | 40908 ft | 488 kts | 140° |
| 2026-05-06 17:01 | 15.57085 | 98.51093 | 40927 ft | 488 kts | 140° |
| 2026-05-06 17:01 | 15.51927 | 98.55691 | 40925 ft | 488 kts | 140° |
| 2026-05-06 17:02 | 15.47025 | 98.60566 | 40930 ft | 489 kts | 131° |
| 2026-05-06 17:02 | 15.42659 | 98.65962 | 40938 ft | 488 kts | 129° |
| 2026-05-06 17:03 | 15.38393 | 98.71432 | 40942 ft | 487 kts | 129° |
| 2026-05-06 17:03 | 15.34166 | 98.76867 | 40941 ft | 488 kts | 129° |
| 2026-05-06 17:04 | 15.29887 | 98.82343 | 40940 ft | 488 kts | 129° |
| 2026-05-06 17:04 | 15.25602 | 98.87809 | 40937 ft | 489 kts | 129° |
| 2026-05-06 17:05 | 15.21314 | 98.93271 | 40938 ft | 488 kts | 129° |
| 2026-05-06 17:05 | 15.17048 | 98.98702 | 40927 ft | 489 kts | 129° |
| 2026-05-06 17:06 | 15.12757 | 99.04162 | 40932 ft | 489 kts | 129° |
| 2026-05-06 17:06 | 15.08464 | 99.09621 | 40920 ft | 489 kts | 130° |
| 2026-05-06 17:07 | 15.04167 | 99.15082 | 40920 ft | 490 kts | 130° |
| 2026-05-06 17:07 | 14.99884 | 99.20521 | 40911 ft | 490 kts | 130° |
| 2026-05-06 17:08 | 14.95572 | 99.25992 | 40898 ft | 490 kts | 130° |
| 2026-05-06 17:08 | 14.91259 | 99.31460 | 40898 ft | 490 kts | 130° |
| 2026-05-06 17:09 | 14.86947 | 99.36924 | 40897 ft | 490 kts | 130° |
| 2026-05-06 17:09 | 14.83364 | 99.41468 | 40888 ft | 490 kts | 130° |
| 2026-05-06 17:10 | 14.78327 | 99.47841 | 40882 ft | 490 kts | 129° |
| 2026-05-06 17:10 | 14.74736 | 99.52377 | 40890 ft | 490 kts | 129° |
| 2026-05-06 17:11 | 14.70416 | 99.57835 | 40871 ft | 491 kts | 129° |
| 2026-05-06 17:11 | 14.66090 | 99.63298 | 40869 ft | 491 kts | 129° |
| 2026-05-06 17:12 | 14.61762 | 99.68759 | 40858 ft | 491 kts | 129° |
| 2026-05-06 17:12 | 14.57477 | 99.74164 | 40854 ft | 491 kts | 129° |
| 2026-05-06 17:13 | 14.53146 | 99.79622 | 40854 ft | 491 kts | 129° |
| 2026-05-06 17:13 | 14.48817 | 99.85074 | 40853 ft | 491 kts | 129° |
| 2026-05-06 17:14 | 14.44481 | 99.90532 | 40851 ft | 492 kts | 130° |
| 2026-05-06 17:14 | 14.40136 | 99.96001 | 40851 ft | 492 kts | 130° |
| 2026-05-06 17:15 | 14.35781 | 100.01474 | 40848 ft | 492 kts | 130° |
| 2026-05-06 17:15 | 14.31458 | 100.06904 | 40851 ft | 494 kts | 130° |
| 2026-05-06 17:16 | 14.27098 | 100.12378 | 40843 ft | 494 kts | 130° |
| 2026-05-06 17:16 | 14.22736 | 100.17851 | 40843 ft | 494 kts | 130° |
| 2026-05-06 17:17 | 14.18372 | 100.23323 | 40841 ft | 493 kts | 130° |
| 2026-05-06 17:17 | 14.14025 | 100.28769 | 40842 ft | 491 kts | 130° |
| 2026-05-06 17:18 | 14.09680 | 100.34209 | 40840 ft | 491 kts | 130° |
| 2026-05-06 17:18 | 14.05340 | 100.39640 | 40848 ft | 491 kts | 130° |
| 2026-05-06 17:19 | 14.00995 | 100.45073 | 40852 ft | 491 kts | 130° |
| 2026-05-06 17:19 | 13.96685 | 100.50459 | 40853 ft | 491 kts | 130° |
| 2026-05-06 17:20 | 13.92339 | 100.55887 | 40854 ft | 491 kts | 130° |
| 2026-05-06 17:20 | 13.88421 | 100.61645 | 40863 ft | 492 kts | 120° |
| 2026-05-06 17:21 | 13.85216 | 100.67864 | 40854 ft | 492 kts | 118° |
| 2026-05-06 17:21 | 13.82123 | 100.74146 | 40855 ft | 492 kts | 117° |
| 2026-05-06 17:22 | 13.79036 | 100.80431 | 40857 ft | 492 kts | 117° |
| 2026-05-06 17:22 | 13.75934 | 100.86706 | 40854 ft | 492 kts | 118° |
| 2026-05-06 17:23 | 13.72842 | 100.92950 | 40850 ft | 492 kts | 118° |
| 2026-05-06 17:23 | 13.69727 | 100.99215 | 40849 ft | 492 kts | 118° |
| 2026-05-06 17:24 | 13.66624 | 101.05449 | 40849 ft | 492 kts | 118° |
| 2026-05-06 17:24 | 13.63529 | 101.11668 | 40845 ft | 492 kts | 118° |
| 2026-05-06 17:25 | 13.60414 | 101.17925 | 40845 ft | 492 kts | 118° |
| 2026-05-06 17:25 | 13.57292 | 101.24192 | 40845 ft | 492 kts | 117° |
| 2026-05-06 17:26 | 13.54171 | 101.30452 | 40850 ft | 492 kts | 117° |
| 2026-05-06 17:26 | 13.51054 | 101.36701 | 40846 ft | 492 kts | 117° |
| 2026-05-06 17:27 | 13.47932 | 101.42965 | 40844 ft | 492 kts | 117° |
| 2026-05-06 17:27 | 13.44828 | 101.49172 | 40850 ft | 492 kts | 117° |
| 2026-05-06 17:28 | 13.41707 | 101.55409 | 40852 ft | 492 kts | 117° |
| 2026-05-06 17:28 | 13.38589 | 101.61681 | 40856 ft | 492 kts | 117° |
| 2026-05-06 17:29 | 13.35555 | 101.67982 | 40856 ft | 492 kts | 116° |
| 2026-05-06 17:29 | 13.32535 | 101.74287 | 40856 ft | 492 kts | 116° |
| 2026-05-06 17:30 | 13.29503 | 101.80586 | 40859 ft | 492 kts | 116° |
| 2026-05-06 17:30 | 13.26477 | 101.86848 | 40858 ft | 492 kts | 116° |
| 2026-05-06 17:31 | 13.23433 | 101.93138 | 40863 ft | 492 kts | 116° |
| 2026-05-06 17:31 | 13.20390 | 101.99437 | 40863 ft | 492 kts | 116° |
| 2026-05-06 17:32 | 13.17339 | 102.05730 | 40868 ft | 493 kts | 116° |
| 2026-05-06 17:32 | 13.14280 | 102.12037 | 40867 ft | 494 kts | 116° |
| 2026-05-06 17:33 | 13.11219 | 102.18346 | 40869 ft | 494 kts | 117° |
| 2026-05-06 17:33 | 13.08157 | 102.24655 | 40867 ft | 494 kts | 117° |
| 2026-05-06 17:34 | 13.05093 | 102.30962 | 40865 ft | 494 kts | 117° |
| 2026-05-06 17:34 | 13.02025 | 102.37273 | 40873 ft | 494 kts | 117° |
| 2026-05-06 17:35 | 12.98971 | 102.43551 | 40872 ft | 494 kts | 117° |
| 2026-05-06 17:35 | 12.95903 | 102.49855 | 40867 ft | 494 kts | 117° |
| 2026-05-06 17:36 | 12.90684 | 102.58964 | 40867 ft | 493 kts | 123° |
| 2026-05-06 17:36 | 12.87017 | 102.64867 | 40867 ft | 494 kts | 122° |
| 2026-05-06 17:37 | 12.83395 | 102.70839 | 40869 ft | 494 kts | 122° |
| 2026-05-06 17:37 | 12.79811 | 102.76844 | 40866 ft | 493 kts | 122° |
| 2026-05-06 17:38 | 12.76245 | 102.82836 | 40864 ft | 493 kts | 122° |
| 2026-05-06 17:38 | 12.72663 | 102.88847 | 40875 ft | 493 kts | 122° |
| 2026-05-06 17:39 | 12.69087 | 102.94841 | 40869 ft | 493 kts | 122° |
| 2026-05-06 17:39 | 12.65528 | 103.00800 | 40868 ft | 493 kts | 122° |
| 2026-05-06 17:40 | 12.61948 | 103.06791 | 40867 ft | 493 kts | 122° |
| 2026-05-06 17:40 | 12.58364 | 103.12783 | 40882 ft | 493 kts | 122° |
| 2026-05-06 17:41 | 12.54782 | 103.18768 | 40879 ft | 493 kts | 122° |
| 2026-05-06 17:41 | 12.51195 | 103.24759 | 40873 ft | 493 kts | 122° |
| 2026-05-06 17:42 | 12.47628 | 103.30712 | 40874 ft | 493 kts | 122° |
| 2026-05-06 17:42 | 12.44041 | 103.36694 | 40867 ft | 493 kts | 122° |
| 2026-05-06 17:43 | 12.40451 | 103.42678 | 40881 ft | 493 kts | 122° |
| 2026-05-06 17:43 | 12.36858 | 103.48662 | 40882 ft | 493 kts | 122° |
| 2026-05-06 17:44 | 12.33264 | 103.54646 | 40873 ft | 494 kts | 122° |
| 2026-05-06 17:44 | 12.29670 | 103.60625 | 40875 ft | 494 kts | 122° |
| 2026-05-06 17:45 | 12.26071 | 103.66609 | 40881 ft | 494 kts | 122° |
| 2026-05-06 17:45 | 12.22474 | 103.72589 | 40881 ft | 494 kts | 122° |
| 2026-05-06 17:46 | 12.18860 | 103.78569 | 40880 ft | 494 kts | 122° |
| 2026-05-06 17:46 | 12.15259 | 103.84498 | 40880 ft | 494 kts | 122° |
| 2026-05-06 17:47 | 12.11640 | 103.90459 | 40889 ft | 493 kts | 122° |
| 2026-05-06 17:47 | 12.08032 | 103.96404 | 40886 ft | 492 kts | 122° |
| 2026-05-06 17:48 | 12.04421 | 104.02354 | 40887 ft | 492 kts | 122° |
| 2026-05-06 17:48 | 12.00817 | 104.08287 | 40879 ft | 490 kts | 122° |
| 2026-05-06 17:49 | 11.97223 | 104.14201 | 40880 ft | 490 kts | 122° |
| 2026-05-06 17:49 | 11.93647 | 104.20082 | 40883 ft | 490 kts | 122° |
| 2026-05-06 17:50 | 11.90048 | 104.25997 | 40875 ft | 491 kts | 122° |
| 2026-05-06 17:50 | 11.86435 | 104.31932 | 40875 ft | 492 kts | 122° |
| 2026-05-06 17:51 | 11.82831 | 104.37846 | 40871 ft | 492 kts | 122° |
| 2026-05-06 17:51 | 11.79210 | 104.43783 | 40871 ft | 492 kts | 122° |
| 2026-05-06 17:52 | 11.75620 | 104.49667 | 40875 ft | 492 kts | 122° |
| 2026-05-06 17:52 | 11.72001 | 104.55595 | 40869 ft | 492 kts | 122° |
| 2026-05-06 17:53 | 11.68385 | 104.61515 | 40864 ft | 492 kts | 122° |
| 2026-05-06 17:53 | 11.64762 | 104.67442 | 40853 ft | 492 kts | 121° |
| 2026-05-06 17:54 | 11.61131 | 104.73380 | 40868 ft | 494 kts | 121° |
| 2026-05-06 17:54 | 11.57508 | 104.79301 | 40853 ft | 494 kts | 122° |
| 2026-05-06 17:55 | 11.54368 | 104.84791 | 40869 ft | 493 kts | 113° |
| 2026-05-06 17:55 | 11.51690 | 104.91230 | 40869 ft | 493 kts | 111° |
| 2026-05-06 17:56 | 11.49171 | 104.97726 | 40868 ft | 493 kts | 111° |
| 2026-05-06 17:56 | 11.46667 | 105.04236 | 40854 ft | 493 kts | 111° |
| 2026-05-06 17:57 | 11.44146 | 105.10746 | 40871 ft | 493 kts | 111° |
| 2026-05-06 17:57 | 11.41616 | 105.17246 | 40852 ft | 493 kts | 111° |
| 2026-05-06 17:58 | 11.40373 | 105.20434 | 40406 ft | 489 kts | 111° |
| 2026-05-06 17:58 | 11.39110 | 105.23672 | 39609 ft | 492 kts | 111° |
| 2026-05-06 17:58 | 11.37839 | 105.26931 | 38815 ft | 496 kts | 111° |
| 2026-05-06 17:58 | 11.36561 | 105.30205 | 37989 ft | 498 kts | 111° |
| 2026-05-06 17:59 | 11.35709 | 105.32388 | 37387 ft | 501 kts | 111° |
| 2026-05-06 17:59 | 11.33979 | 105.36817 | 36236 ft | 504 kts | 111° |
| 2026-05-06 17:59 | 11.32682 | 105.40137 | 35467 ft | 504 kts | 111° |
| 2026-05-06 17:59 | 11.31822 | 105.42340 | 34949 ft | 505 kts | 111° |
| 2026-05-06 18:00 | 11.30097 | 105.46750 | 33929 ft | 505 kts | 111° |
| 2026-05-06 18:00 | 11.29219 | 105.48996 | 33341 ft | 506 kts | 112° |
| 2026-05-06 18:00 | 11.27917 | 105.52324 | 32430 ft | 506 kts | 112° |
| 2026-05-06 18:00 | 11.26609 | 105.55666 | 31601 ft | 506 kts | 112° |
| 2026-05-06 18:01 | 11.25307 | 105.58993 | 30769 ft | 506 kts | 112° |
| 2026-05-06 18:01 | 11.24004 | 105.62321 | 30027 ft | 504 kts | 112° |
| 2026-05-06 18:01 | 11.22708 | 105.65628 | 29245 ft | 501 kts | 112° |
| 2026-05-06 18:01 | 11.21435 | 105.68875 | 28519 ft | 497 kts | 112° |
| 2026-05-06 18:02 | 11.20161 | 105.72124 | 27904 ft | 491 kts | 112° |
| 2026-05-06 18:02 | 11.18902 | 105.75335 | 27324 ft | 485 kts | 112° |
| 2026-05-06 18:02 | 11.17659 | 105.78504 | 26748 ft | 479 kts | 112° |
| 2026-05-06 18:02 | 11.16430 | 105.81635 | 26180 ft | 473 kts | 112° |
| 2026-05-06 18:03 | 11.15216 | 105.84726 | 25607 ft | 468 kts | 112° |
| 2026-05-06 18:03 | 11.14010 | 105.87798 | 25040 ft | 463 kts | 112° |
| 2026-05-06 18:03 | 11.12820 | 105.90826 | 24475 ft | 458 kts | 111° |
| 2026-05-06 18:03 | 11.11640 | 105.93829 | 23903 ft | 454 kts | 111° |
| 2026-05-06 18:04 | 11.10471 | 105.96803 | 23325 ft | 450 kts | 111° |
| 2026-05-06 18:04 | 11.09318 | 105.99736 | 22692 ft | 446 kts | 111° |
| 2026-05-06 18:04 | 11.08172 | 106.02648 | 22123 ft | 440 kts | 112° |
| 2026-05-06 18:04 | 11.07043 | 106.05517 | 21576 ft | 434 kts | 112° |
| 2026-05-06 18:05 | 11.05928 | 106.08350 | 20997 ft | 429 kts | 112° |
| 2026-05-06 18:05 | 11.04840 | 106.11113 | 20436 ft | 424 kts | 111° |
| 2026-05-06 18:05 | 11.03753 | 106.13882 | 19883 ft | 419 kts | 111° |
| 2026-05-06 18:05 | 11.02961 | 106.16716 | 19325 ft | 414 kts | 98° |
| 2026-05-06 18:06 | 11.03011 | 106.19619 | 18768 ft | 410 kts | 79° |
| 2026-05-06 18:06 | 11.03929 | 106.22349 | 18211 ft | 406 kts | 65° |
| 2026-05-06 18:06 | 11.05174 | 106.24918 | 17599 ft | 403 kts | 63° |
| 2026-05-06 18:06 | 11.06444 | 106.27447 | 17040 ft | 398 kts | 63° |
| 2026-05-06 18:07 | 11.07688 | 106.29940 | 16500 ft | 393 kts | 63° |
| 2026-05-06 18:07 | 11.08913 | 106.32412 | 15968 ft | 388 kts | 63° |
| 2026-05-06 18:07 | 11.10118 | 106.34852 | 15413 ft | 384 kts | 63° |
| 2026-05-06 18:07 | 11.11303 | 106.37256 | 14906 ft | 380 kts | 64° |
| 2026-05-06 18:08 | 11.12482 | 106.39653 | 14381 ft | 376 kts | 64° |
| 2026-05-06 18:08 | 11.13646 | 106.42019 | 13847 ft | 373 kts | 64° |
| 2026-05-06 18:08 | 11.14798 | 106.44366 | 13293 ft | 369 kts | 64° |
| 2026-05-06 18:08 | 11.15939 | 106.46693 | 12756 ft | 364 kts | 64° |
| 2026-05-06 18:09 | 11.17061 | 106.48983 | 12241 ft | 360 kts | 64° |
| 2026-05-06 18:09 | 11.18174 | 106.51254 | 11729 ft | 356 kts | 64° |
| 2026-05-06 18:09 | 11.19281 | 106.53509 | 11220 ft | 354 kts | 64° |
| 2026-05-06 18:09 | 11.20378 | 106.55741 | 10725 ft | 351 kts | 64° |
| 2026-05-06 18:10 | 11.21449 | 106.57923 | 10368 ft | 344 kts | 64° |
| 2026-05-06 18:10 | 11.22492 | 106.60053 | 10252 ft | 327 kts | 64° |
| 2026-05-06 18:10 | 11.23481 | 106.62076 | 10159 ft | 311 kts | 64° |
| 2026-05-06 18:10 | 11.24424 | 106.64003 | 10062 ft | 297 kts | 64° |
| 2026-05-06 18:11 | 11.25326 | 106.65847 | 9934 ft | 284 kts | 64° |
| 2026-05-06 18:11 | 11.26195 | 106.67623 | 9771 ft | 276 kts | 64° |
| 2026-05-06 18:11 | 11.27062 | 106.69395 | 9426 ft | 284 kts | 64° |
| 2026-05-06 18:11 | 11.27948 | 106.71211 | 9188 ft | 287 kts | 64° |
| 2026-05-06 18:12 | 11.28712 | 106.73084 | 8886 ft | 285 kts | 76° |
| 2026-05-06 18:12 | 11.28864 | 106.75080 | 8541 ft | 282 kts | 92° |
| 2026-05-06 18:12 | 11.28735 | 106.77069 | 8208 ft | 281 kts | 94° |
| 2026-05-06 18:12 | 11.28584 | 106.79031 | 7891 ft | 280 kts | 94° |
| 2026-05-06 18:13 | 11.28437 | 106.81005 | 7566 ft | 278 kts | 94° |
| 2026-05-06 18:13 | 11.28294 | 106.82968 | 7231 ft | 277 kts | 94° |
| 2026-05-06 18:13 | 11.28159 | 106.84919 | 6940 ft | 275 kts | 93° |
| 2026-05-06 18:13 | 11.28027 | 106.86865 | 6925 ft | 276 kts | 93° |
| 2026-05-06 18:14 | 11.27892 | 106.88810 | 6923 ft | 275 kts | 94° |
| 2026-05-06 18:14 | 11.27756 | 106.90760 | 6917 ft | 275 kts | 94° |
| 2026-05-06 18:14 | 11.27621 | 106.92701 | 6925 ft | 275 kts | 94° |
| 2026-05-06 18:14 | 11.27484 | 106.94647 | 6920 ft | 275 kts | 93° |
| 2026-05-06 18:15 | 11.27213 | 106.96551 | 6924 ft | 276 kts | 103° |
| 2026-05-06 18:15 | 11.26674 | 106.98395 | 6920 ft | 276 kts | 107° |
| 2026-05-06 18:15 | 11.26074 | 107.00254 | 6923 ft | 276 kts | 107° |
| 2026-05-06 18:15 | 11.25471 | 107.02112 | 6922 ft | 276 kts | 107° |
| 2026-05-06 18:16 | 11.24871 | 107.03972 | 6918 ft | 276 kts | 107° |
| 2026-05-06 18:16 | 11.24260 | 107.05826 | 6918 ft | 276 kts | 109° |
| 2026-05-06 18:16 | 11.23375 | 107.07557 | 6921 ft | 277 kts | 122° |
| 2026-05-06 18:16 | 11.22278 | 107.09173 | 6918 ft | 278 kts | 124° |
| 2026-05-06 18:17 | 11.21158 | 107.10775 | 6918 ft | 277 kts | 124° |
| 2026-05-06 18:17 | 11.20039 | 107.12378 | 6924 ft | 277 kts | 124° |
| 2026-05-06 18:17 | 11.18925 | 107.13983 | 6918 ft | 277 kts | 124° |
| 2026-05-06 18:17 | 11.17772 | 107.15527 | 6919 ft | 278 kts | 131° |
| 2026-05-06 18:18 | 11.16347 | 107.16866 | 6917 ft | 279 kts | 139° |
| 2026-05-06 18:18 | 11.14841 | 107.18120 | 6919 ft | 280 kts | 139° |
| 2026-05-06 18:18 | 11.13239 | 107.19250 | 6925 ft | 282 kts | 152° |
| 2026-05-06 18:18 | 11.11346 | 107.19738 | 6924 ft | 285 kts | 178° |
| 2026-05-06 18:19 | 11.09414 | 107.19300 | 6907 ft | 289 kts | 205° |
| 2026-05-06 18:19 | 11.07872 | 107.18006 | 6782 ft | 291 kts | 233° |
| 2026-05-06 18:19 | 11.07035 | 107.16143 | 6620 ft | 291 kts | 253° |
| 2026-05-06 18:19 | 11.06256 | 107.14239 | 6436 ft | 291 kts | 240° |
| 2026-05-06 18:20 | 11.05219 | 107.12475 | 6267 ft | 290 kts | 237° |
| 2026-05-06 18:20 | 11.04137 | 107.10746 | 6084 ft | 289 kts | 237° |
| 2026-05-06 18:20 | 11.03050 | 107.09023 | 5910 ft | 288 kts | 236° |
| 2026-05-06 18:20 | 11.01965 | 107.07305 | 5746 ft | 288 kts | 237° |
| 2026-05-06 18:21 | 11.00887 | 107.05595 | 5551 ft | 287 kts | 236° |
| 2026-05-06 18:21 | 10.99820 | 107.03901 | 5166 ft | 282 kts | 237° |
| 2026-05-06 18:21 | 10.98765 | 107.02224 | 4768 ft | 281 kts | 236° |
| 2026-05-06 18:21 | 10.97711 | 107.00552 | 4366 ft | 279 kts | 236° |
| 2026-05-06 18:22 | 10.96680 | 106.98915 | 4069 ft | 277 kts | 237° |
| 2026-05-06 18:22 | 10.95639 | 106.97263 | 3999 ft | 277 kts | 236° |
| 2026-05-06 18:22 | 10.94605 | 106.95613 | 3997 ft | 277 kts | 238° |
| 2026-05-06 18:22 | 10.93375 | 106.94116 | 4000 ft | 275 kts | 225° |
| 2026-05-06 18:23 | 10.92246 | 106.92562 | 4000 ft | 268 kts | 243° |
| 2026-05-06 18:23 | 10.91629 | 106.90829 | 4012 ft | 257 kts | 253° |
| 2026-05-06 18:23 | 10.91084 | 106.89106 | 3983 ft | 255 kts | 249° |
| 2026-05-06 18:23 | 10.90429 | 106.87421 | 3981 ft | 256 kts | 247° |
| 2026-05-06 18:24 | 10.89776 | 106.85744 | 3980 ft | 253 kts | 248° |
| 2026-05-06 18:24 | 10.89161 | 106.84086 | 3740 ft | 249 kts | 249° |
| 2026-05-06 18:24 | 10.88544 | 106.82445 | 3400 ft | 248 kts | 248° |
| 2026-05-06 18:24 | 10.87925 | 106.80792 | 3030 ft | 253 kts | 248° |
| 2026-05-06 18:25 | 10.87298 | 106.79122 | 2586 ft | 249 kts | 248° |
| 2026-05-06 18:25 | 10.86697 | 106.77521 | 2261 ft | 236 kts | 248° |
| 2026-05-06 18:25 | 10.86138 | 106.76029 | 1975 ft | 214 kts | 247° |
| 2026-05-06 18:25 | 10.85633 | 106.74688 | 1758 ft | 195 kts | 246° |
| 2026-05-06 18:26 | 10.85156 | 106.73421 | 1466 ft | 188 kts | 246° |
| 2026-05-06 18:26 | 10.84708 | 106.72223 | 1235 ft | 179 kts | 246° |
| 2026-05-06 18:26 | 10.84274 | 106.71071 | 1005 ft | 171 kts | 245° |
| 2026-05-06 18:26 | 10.83859 | 106.69974 | 816 ft | 161 kts | 247° |
| 2026-05-06 18:27 | 10.83470 | 106.68936 | 583 ft | 154 kts | 248° |
| 2026-05-06 18:27 | 10.83098 | 106.67942 | 418 ft | 147 kts | 249° |
| 2026-05-06 18:27 | 10.82735 | 106.66994 | 228 ft | 143 kts | 249° |
| 2026-05-06 18:27 | 10.82380 | 106.66057 | 55 ft | 142 kts | 250° |
| 2026-05-06 18:28 | 10.82068 | 106.65220 | 42 ft | 101 kts | 249° |
| 2026-05-06 18:28 | 10.81884 | 106.64731 | 42 ft | 46 kts | 249° |
| 2026-05-06 18:28 | 10.81809 | 106.64534 | 43 ft | 26 kts | 246° |
| 2026-05-06 18:28 | 10.81711 | 106.64395 | 41 ft | 14 kts | 224° |
| 2026-05-06 18:29 | 10.81630 | 106.64324 | 41 ft | 17 kts | 220° |
| 2026-05-06 18:29 | 10.81556 | 106.64292 | 42 ft | 7 kts | 171° |
| 2026-05-06 18:29 | 10.81500 | 106.64310 | 43 ft | 9 kts | 158° |
| 2026-05-06 18:29 | 10.81432 | 106.64335 | 44 ft | 11 kts | 160° |
| 2026-05-06 18:30 | 10.81348 | 106.64367 | 43 ft | 15 kts | 160° |
| 2026-05-06 18:30 | 10.81258 | 106.64415 | 43 ft | 14 kts | 123° |
| 2026-05-06 18:30 | 10.81270 | 106.64506 | 45 ft | 13 kts | 68° |
| 2026-05-06 18:30 | 10.81306 | 106.64598 | 44 ft | 15 kts | 68° |
| 2026-05-06 18:31 | 10.81345 | 106.64703 | 42 ft | 17 kts | 70° |
| 2026-05-06 18:31 | 10.81387 | 106.64821 | 46 ft | 18 kts | 70° |
| 2026-05-06 18:31 | 10.81434 | 106.64943 | 46 ft | 18 kts | 69° |
| 2026-05-06 18:31 | 10.81486 | 106.65078 | 45 ft | 22 kts | 69° |
| 2026-05-06 18:32 | 10.81539 | 106.65216 | 44 ft | 22 kts | 69° |
| 2026-05-06 18:32 | 10.81592 | 106.65357 | 41 ft | 17 kts | 69° |
| 2026-05-06 18:32 | 10.81630 | 106.65458 | 40 ft | 17 kts | 69° |
| 2026-05-06 18:32 | 10.81672 | 106.65571 | 42 ft | 18 kts | 69° |
| 2026-05-06 18:33 | 10.81719 | 106.65696 | 42 ft | 20 kts | 69° |
| 2026-05-06 18:33 | 10.81689 | 106.65832 | 38 ft | 20 kts | 110° |
| 2026-05-06 18:33 | 10.81708 | 106.65966 | 43 ft | 19 kts | 70° |
| 2026-05-06 18:33 | 10.81739 | 106.66048 | 43 ft | 11 kts | 69° |
| 2026-05-06 18:34 | 10.81770 | 106.66130 | 43 ft | 14 kts | 69° |
| 2026-05-06 18:34 | 10.81807 | 106.66229 | 43 ft | 17 kts | 69° |
| 2026-05-06 18:34 | 10.81844 | 106.66327 | 43 ft | 15 kts | 69° |
| 2026-05-06 18:34 | 10.81875 | 106.66409 | 43 ft | 12 kts | 69° |
| 2026-05-06 18:35 | 10.81896 | 106.66464 | 43 ft | 12 kts | 69° |
| 2026-05-06 18:35 | 10.81908 | 106.66537 | 43 ft | 5 kts | 126° |
| 2026-05-06 18:35 | 10.81869 | 106.66560 | 43 ft | 5 kts | 156° |
| 2026-05-06 18:35 | 10.81841 | 106.66572 | 43 ft | 2 kts | 159° |
| 2026-05-06 18:36 | 10.81837 | 106.66573 | 43 ft | 0 kts | 158° |